Aviation Digital Data Service (ADDS)

Output produced by METARs form (1911 UTC 09 December 2018)
found at http://www.aviationweather.gov/metar/data/
 
OMAA 091900Z 26006KT CAVOK 23/16 Q1016 NOSIG
TAF OMAA 091700Z 0918/1100 29006KT 8000 NSC 
     BECMG 0919/0921 22005KT 
     BECMG 1004/1006 32012KT 
     BECMG 1019/1021 22005KT
       
OMAL 091900Z 28003KT CAVOK 20/13 Q1018 NOSIG
TAF OMAL 091700Z 0918/1100 28005KT 8000 NSC 
     BECMG 0920/0922 20005KT 
     PROB30 1002/1005 4000 HZ 
     BECMG 1005/1007 32012KT
       
OMAD 091900Z 25002KT CAVOK 24/15 Q1017 NOSIG
TAF OMAD 091700Z 0918/1100 29005KT 8000 NSC 
     BECMG 0919/0921 23005KT 
     BECMG 1004/1006 33010KT 
     BECMG 1020/1022 21005KT
       
OMDB 091900Z 26004KT 160V290 CAVOK 26/16 Q1016 NOSIG
TAF OMDB 091650Z 0918/1100 29012KT CAVOK 
     PROB30 0922/1004 22007KT 
     BECMG 1017/1019 18005KT
       
OMFJ 091900Z 31014KT CAVOK 25/12 Q1015 RMK A2998
TAF OMFJ 091700Z 0918/1024 30010KT 8000 NSC 
     PROB30 0920/1003 30015G25KT 5000 BLDU 
     BECMG 1006/1008 08008KT 
     BECMG 1014/1016 29010KT 
       
OMRK 091900Z VRB02KT CAVOK 21/16 Q1016 A3001
TAF OMRK 091650Z 0918/1100 VRB02KT 9999 FEW040 
     BECMG 1005/1007 27012KT 
     BECMG 1014/1016 18005KT
       
OMSJ 091900Z 25003KT CAVOK 23/15 Q1016
TAF OMSJ 091650Z 0918/1100 28012KT CAVOK 
     PROB40 0918/1004 21007KT 
     BECMG 1016/1018 18005KT